-> Other stations

1455

Speed(max): 0(0)knots
Direction:232° ( SW)
Temperature: 13.5°C
Arrived: 2026-05-09 23:44:10 CEST

Past data:
hh:mmknots
Dir (°)
°C
23:42 0 0 SW(230) 13.5
23:40 0 0 SW(232) 13.6
23:38 0 0 SW(231) 14.0
23:36 0 0 SW(230) 14.0
23:34 0 0 SW(233) 13.7
23:32 0 0 SW(233) 13.7
23:30 0 0 SW(229) 13.6
23:28 0 0 SW(231) 13.5
23:26 0 0 SW(232) 13.2
23:24 0 0 SW(231) 13.2
23:22 0 0 SW(229) 13.1
23:20 0 0 SW(232) 13.2
23:18 0 0 SW(234) 13.2
23:16 0 0 SW(231) 13.1
15 min. averages:
hh:mmknots
Dir (°)
°C
23:45 0 0 SW(231) 13.7
23:30 0 0 SW(231) 13.2
23:15 0 0 SW(232) 13.0
23:00 0 1.6 SW(231) 13.5
22:45 0 1.6 SW(232) 13.8
22:30 1.1 2.7 SW(232) 14.2
22:15 0.5 3.8 SW(232) 14.7
22:00 1.1 2.7 SW(233) 14.9
21:45 1.6 3.8 SW(232) 15.0
21:30 0 2.7 SW(233) 14.2
21:15 0 0 SW(231) 14.6
21:00 0 1.1 SW(232) 15.2
20:45 0.5 2.7 SW(232) 15.8
20:30 1.6 2.7 SW(232) 16.8
20:15 1.6 3.8 SW(232) 17.5
Stations at HR:
1455
-> Other regions

Desktop view
Data provided by Holfuy.
© Holfuy Weather 2026